Time;durP1;ratioP1;P1;durP2;ratioP2;P2;SDS_P1;SDS_P2;PMS_P1;PMS_P2;Temp;Humidity;BMP_temperature;BMP_pressure;BME280_temperature;BME280_humidity;BME280_pressure;Samples;Min_cycle;Max_cycle;Signal;HPM_P1;HPM_P2
2022/09/15 00:00:21;;;;;;;10.60;5.90;;;;;;;16.30;70.92;98970.69;104395;1277;141456;-78
2022/09/15 00:03:09;;;;;;;12.10;5.90;;;;;;;16.32;70.88;98968.17;104572;1277;94630;-80
2022/09/15 00:05:36;;;;;;;11.80;6.00;;;;;;;16.35;70.77;98960.80;104522;1275;141501;-78
2022/09/15 00:08:04;;;;;;;10.80;5.60;;;;;;;16.37;70.90;98959.63;104738;1274;107349;-79
2022/09/15 00:10:32;;;;;;;9.70;5.90;;;;;;;16.40;70.87;98959.02;104517;1274;141107;-78
2022/09/15 00:13:00;;;;;;;12.00;5.90;;;;;;;16.46;70.48;98960.55;104554;1277;109385;-79
2022/09/15 00:15:27;;;;;;;11.60;6.20;;;;;;;16.46;70.15;98961.80;104587;1277;94411;-78
2022/09/15 00:17:55;;;;;;;11.00;5.90;;;;;;;16.46;70.09;98959.80;104475;1277;139003;-78
2022/09/15 00:20:23;;;;;;;10.50;5.80;;;;;;;16.46;70.45;98958.44;104574;1277;108838;-78
2022/09/15 00:22:51;;;;;;;10.80;6.00;;;;;;;16.33;70.74;98955.42;104484;1277;138337;-79
2022/09/15 00:25:18;;;;;;;9.90;5.90;;;;;;;16.25;71.18;98954.00;104521;1277;109209;-78
2022/09/15 00:27:46;;;;;;;10.90;5.90;;;;;;;16.28;71.12;98952.02;104644;1277;95129;-78
2022/09/15 00:30:14;;;;;;;11.00;5.60;;;;;;;16.32;70.96;98955.48;104426;1277;139498;-80
2022/09/15 00:32:42;;;;;;;10.50;6.30;;;;;;;16.36;70.68;98957.49;104689;1277;108800;-79
2022/09/15 00:35:10;;;;;;;10.90;6.10;;;;;;;16.40;70.63;98964.76;104528;1277;138679;-78
2022/09/15 00:37:37;;;;;;;12.10;6.30;;;;;;;16.42;70.44;98963.73;104556;1277;109303;-79
2022/09/15 00:40:05;;;;;;;10.00;6.10;;;;;;;16.43;70.29;98974.95;104599;1277;94534;-79
2022/09/15 00:42:33;;;;;;;11.90;6.00;;;;;;;16.44;70.36;98974.48;104723;1277;94392;-78
2022/09/15 00:45:02;;;;;;;10.60;6.00;;;;;;;16.46;70.57;98969.38;104587;1277;108896;-79
2022/09/15 00:47:37;;;;;;;11.50;6.00;;;;;;;16.45;70.50;98969.27;104665;1277;138548;-79
2022/09/15 00:50:10;;;;;;;10.70;5.80;;;;;;;16.45;70.21;98974.05;104558;1278;109540;-80
2022/09/15 00:52:48;;;;;;;12.60;6.10;;;;;;;16.47;70.07;98976.63;104547;1277;140819;-79
2022/09/15 00:55:36;;;;;;;10.00;5.70;;;;;;;16.50;70.33;98975.86;104602;1277;94489;-78
2022/09/15 00:58:07;;;;;;;10.70;6.20;;;;;;;16.43;70.54;98970.59;104593;1277;109153;-79
2022/09/15 01:00:36;;;;;;;10.70;5.90;;;;;;;16.37;70.88;98962.48;104610;1277;99967;-79
2022/09/15 01:03:04;;;;;;;10.30;5.60;;;;;;;16.32;70.89;98956.73;104580;1277;109580;-81
2022/09/15 01:05:37;;;;;;;11.20;6.00;;;;;;;16.29;71.03;98948.71;104414;1277;139029;-78
2022/09/15 01:08:10;;;;;;;10.90;6.00;;;;;;;16.29;71.02;98949.77;104689;1277;95079;-78
2022/09/15 01:10:40;;;;;;;10.20;5.90;;;;;;;16.28;71.17;98949.36;104538;1277;139971;-78
2022/09/15 01:13:11;;;;;;;10.60;5.80;;;;;;;16.32;71.06;98952.80;104563;1277;99891;-79
2022/09/15 01:15:51;;;;;;;8.70;5.50;;;;;;;16.38;70.83;98951.30;104596;1278;109317;-79
2022/09/15 01:18:38;;;;;;;10.00;6.40;;;;;;;16.33;71.13;98939.44;104492;1277;138254;-78
2022/09/15 01:21:28;;;;;;;11.70;6.40;;;;;;;16.23;71.34;98933.59;104615;1275;94331;-79
2022/09/15 01:23:58;;;;;;;10.00;5.60;;;;;;;16.16;71.73;98932.30;104446;1277;138370;-79
2022/09/15 01:26:41;;;;;;;10.80;6.10;;;;;;;16.24;71.38;98937.83;104576;1277;99858;-79
2022/09/15 01:29:56;;;;;;;10.30;6.10;;;;;;;16.31;71.26;98935.52;104519;1275;140086;-78
2022/09/15 01:35:47;;;;;;;9.40;6.20;;;;;;;16.09;71.99;98918.45;104596;1274;138835;-80
2022/09/15 01:38:23;;;;;;;11.70;6.10;;;;;;;16.12;72.37;98918.78;104942;1275;109002;-77
2022/09/15 01:41:15;;;;;;;10.00;5.90;;;;;;;16.25;71.86;98915.84;104447;1274;138914;-78
2022/09/15 01:44:01;;;;;;;10.00;5.50;;;;;;;16.33;71.38;98918.00;104615;1277;109252;-80
2022/09/15 01:46:34;;;;;;;11.30;6.00;;;;;;;16.28;71.57;98912.63;104520;1275;140749;-79
2022/09/15 01:49:04;;;;;;;11.40;6.80;;;;;;;16.17;71.84;98915.18;104641;1276;95008;-78
2022/09/15 01:51:33;;;;;;;10.50;6.20;;;;;;;16.12;72.14;98916.27;104623;1277;108859;-78
2022/09/15 01:54:04;;;;;;;12.60;6.50;;;;;;;16.19;71.93;98918.44;104599;1274;139054;-79
2022/09/15 01:56:32;;;;;;;9.80;6.20;;;;;;;16.25;71.68;98919.09;104606;1274;109272;-80
2022/09/15 01:59:00;;;;;;;9.80;6.20;;;;;;;16.22;71.85;98913.25;104527;1274;138213;-79
2022/09/15 02:01:39;;;;;;;10.00;6.20;;;;;;;16.14;72.29;98910.90;104580;1277;94123;-79
2022/09/15 02:04:32;;;;;;;9.80;6.00;;;;;;;16.19;72.23;98910.91;104515;1277;139428;-79
2022/09/15 02:07:12;;;;;;;9.00;5.60;;;;;;;16.29;71.80;98912.56;104666;1274;100305;-79
2022/09/15 02:10:10;;;;;;;11.00;6.60;;;;;;;16.32;71.69;98912.85;104672;1274;109198;-78
2022/09/15 02:12:52;;;;;;;10.20;6.60;;;;;;;16.31;71.68;98909.34;104733;1274;95632;-79
2022/09/15 02:15:27;;;;;;;10.80;6.40;;;;;;;16.31;71.79;98906.61;104629;1274;94568;-79
2022/09/15 02:17:58;;;;;;;9.70;6.20;;;;;;;16.29;71.90;98902.83;104883;1274;139397;-78
2022/09/15 02:20:50;;;;;;;10.30;6.50;;;;;;;16.31;71.99;98897.88;104727;1274;99664;-78
2022/09/15 02:23:34;;;;;;;11.50;6.80;;;;;;;16.31;71.88;98896.60;104569;1274;139448;-78
2022/09/15 02:26:11;;;;;;;10.00;6.40;;;;;;;16.24;72.27;98890.32;104682;1274;94760;-78
2022/09/15 02:28:42;;;;;;;9.80;6.40;;;;;;;16.26;72.23;98885.02;104561;1274;141387;-79
2022/09/15 02:31:14;;;;;;;9.90;6.20;;;;;;;16.25;72.31;98884.01;104691;1274;107457;-79
2022/09/15 02:33:49;;;;;;;11.00;7.20;;;;;;;16.26;72.34;98880.91;104665;1274;98351;-79
2022/09/15 02:36:20;;;;;;;11.40;6.90;;;;;;;16.19;72.61;98878.13;104426;1277;139086;-80
2022/09/15 02:39:03;;;;;;;10.80;6.60;;;;;;;16.13;72.81;98879.11;104617;1277;94617;-80
2022/09/15 02:41:33;;;;;;;10.00;6.80;;;;;;;16.16;72.80;98877.66;104502;1277;140585;-78
2022/09/15 02:44:01;;;;;;;10.80;6.60;;;;;;;16.24;72.69;98872.95;104617;1277;108434;-79
2022/09/15 02:46:29;;;;;;;11.70;6.70;;;;;;;16.29;72.46;98877.96;104498;1277;140126;-80
2022/09/15 02:48:56;;;;;;;10.60;7.00;;;;;;;16.27;72.39;98878.65;104618;1277;109439;-79
2022/09/15 02:51:25;;;;;;;11.40;6.80;;;;;;;16.24;72.49;98878.86;104582;1277;94875;-79
2022/09/15 02:53:53;;;;;;;10.60;7.00;;;;;;;16.29;72.39;98880.67;104452;1277;139412;-79
2022/09/15 02:56:21;;;;;;;9.40;6.70;;;;;;;16.35;71.96;98880.89;104574;1277;108975;-79
2022/09/15 02:58:49;;;;;;;10.90;7.10;;;;;;;16.38;71.61;98886.60;104508;1277;138470;-78
2022/09/15 03:01:16;;;;;;;9.90;6.70;;;;;;;16.40;71.63;98886.48;104647;1277;110016;-80
2022/09/15 03:03:46;;;;;;;10.30;7.00;;;;;;;16.39;71.96;98887.06;104554;1277;94324;-78
2022/09/15 03:06:16;;;;;;;11.50;6.90;;;;;;;16.27;72.25;98882.38;104600;1274;138460;-81
2022/09/15 03:08:49;;;;;;;13.10;7.90;;;;;;;16.29;72.37;98880.15;104756;1274;108560;-79
2022/09/15 03:11:20;;;;;;;12.00;8.00;;;;;;;16.32;72.40;98879.41;104573;1277;139984;-79
2022/09/15 03:13:53;;;;;;;11.00;8.00;;;;;;;16.34;72.61;98877.20;104591;1277;108030;-80
2022/09/15 03:16:21;;;;;;;12.00;7.80;;;;;;;16.40;72.68;98874.48;104600;1274;140082;-80
2022/09/15 03:18:49;;;;;;;12.00;8.10;;;;;;;16.38;72.83;98867.77;104802;1274;94286;-79
2022/09/15 03:21:18;;;;;;;12.90;8.00;;;;;;;16.37;72.92;98866.58;104545;1276;108756;-80
2022/09/15 03:23:45;;;;;;;12.20;8.20;;;;;;;16.33;73.06;98867.60;104442;1277;139023;-80
2022/09/15 03:26:13;;;;;;;12.90;8.20;;;;;;;16.31;73.32;98869.00;104662;1274;109295;-80
2022/09/15 03:28:41;;;;;;;12.70;8.20;;;;;;;16.40;73.04;98870.90;104618;1274;139164;-79
2022/09/15 03:31:10;;;;;;;12.80;8.30;;;;;;;16.44;72.83;98868.08;104990;1274;94755;-79
2022/09/15 03:33:38;;;;;;;12.70;8.60;;;;;;;16.43;72.77;98870.33;104751;1274;108779;-79
2022/09/15 03:36:08;;;;;;;13.00;7.90;;;;;;;16.45;72.74;98866.05;104503;1274;139543;-79
2022/09/15 03:38:37;;;;;;;12.20;8.50;;;;;;;16.48;72.75;98867.46;104592;1277;108865;-79
2022/09/15 03:41:09;;;;;;;13.50;9.30;;;;;;;16.50;72.77;98872.23;104461;1277;144616;-79
2022/09/15 03:43:38;;;;;;;15.40;9.20;;;;;;;16.52;72.70;98874.46;104672;1274;94315;-78
2022/09/15 03:46:09;;;;;;;13.40;9.30;;;;;;;16.52;72.81;98870.17;104673;1274;107242;-78
2022/09/15 03:48:39;;;;;;;13.10;8.80;;;;;;;16.52;72.92;98871.41;104752;1274;99722;-79
2022/09/15 03:51:09;;;;;;;15.60;9.60;;;;;;;16.56;72.84;98881.52;104752;1274;109408;-78
2022/09/15 03:53:40;;;;;;;13.90;9.20;;;;;;;16.58;72.83;98884.10;104706;1274;140378;-78
2022/09/15 03:56:08;;;;;;;13.90;8.90;;;;;;;16.54;72.88;98884.88;104616;1277;94216;-79
2022/09/15 03:58:36;;;;;;;12.30;9.20;;;;;;;16.51;72.83;98884.23;104553;1277;138775;-79
2022/09/15 04:01:04;;;;;;;13.90;9.10;;;;;;;16.52;72.93;98880.06;104694;1277;99951;-80
2022/09/15 04:03:31;;;;;;;16.50;9.50;;;;;;;16.53;72.95;98883.73;104653;1277;109343;-80
2022/09/15 04:05:59;;;;;;;14.30;9.30;;;;;;;16.51;72.79;98881.38;104548;1275;139879;-79
2022/09/15 04:08:27;;;;;;;14.80;9.70;;;;;;;16.49;72.73;98880.75;104771;1274;94314;-80
2022/09/15 04:10:55;;;;;;;14.80;9.20;;;;;;;16.47;72.74;98882.40;104633;1274;140341;-78
2022/09/15 04:13:22;;;;;;;15.40;9.30;;;;;;;16.41;72.76;98889.64;104709;1274;99413;-80
2022/09/15 04:16:05;;;;;;;12.50;8.60;;;;;;;16.37;72.86;98888.27;104661;1274;109422;-79
2022/09/15 04:18:33;;;;;;;13.00;8.30;;;;;;;16.42;72.51;98883.67;104771;1274;95130;-79
2022/09/15 04:21:13;;;;;;;13.90;9.20;;;;;;;16.41;72.50;98880.29;104753;1274;94329;-78
2022/09/15 04:23:43;;;;;;;17.00;9.10;;;;;;;16.41;72.38;98889.66;104558;1275;138832;-78
2022/09/15 04:26:19;;;;;;;12.80;8.20;;;;;;;16.37;72.27;98881.45;104719;1277;99932;-79
2022/09/15 04:28:47;;;;;;;12.00;7.70;;;;;;;16.35;72.15;98875.90;104513;1277;139124;-78
2022/09/15 04:31:15;;;;;;;14.20;8.30;;;;;;;16.31;72.12;98867.46;104662;1277;94718;-79
2022/09/15 04:33:44;;;;;;;14.20;8.30;;;;;;;16.31;72.12;98861.70;104745;1277;94586;-79
2022/09/15 04:36:15;;;;;;;14.60;9.00;;;;;;;16.32;71.92;98864.14;104523;1277;138836;-78
2022/09/15 04:38:44;;;;;;;13.10;8.40;;;;;;;16.33;71.77;98855.96;104602;1277;99916;-79
2022/09/15 04:41:13;;;;;;;13.30;8.00;;;;;;;16.39;71.76;98858.78;104538;1276;139043;-79
2022/09/15 04:43:42;;;;;;;14.20;8.40;;;;;;;16.42;71.57;98860.55;104853;1274;94351;-79
2022/09/15 04:46:11;;;;;;;71.40;53.00;;;;;;;16.38;71.41;98856.84;104402;1277;138540;-79
2022/09/15 04:48:39;;;;;;;31.10;21.00;;;;;;;16.40;71.31;98860.13;104688;1273;108805;-80
2022/09/15 04:51:11;;;;;;;14.40;9.30;;;;;;;16.42;71.07;98865.05;104638;1274;99933;-78
2022/09/15 04:53:40;;;;;;;13.80;8.70;;;;;;;16.40;70.99;98861.20;104642;1274;140994;-79
2022/09/15 04:56:14;;;;;;;14.70;8.70;;;;;;;16.34;71.27;98863.79;104620;1277;94232;-79
2022/09/15 04:58:44;;;;;;;14.20;8.60;;;;;;;16.35;71.22;98864.42;104534;1277;139051;-79
2022/09/15 05:01:15;;;;;;;13.40;8.40;;;;;;;16.39;71.03;98873.43;104778;1277;107346;-76
2022/09/15 05:03:45;;;;;;;12.90;8.10;;;;;;;16.41;71.06;98872.44;104649;1277;99921;-77
2022/09/15 05:06:16;;;;;;;12.80;8.20;;;;;;;16.38;70.76;98872.63;104798;1274;138774;-78
2022/09/15 05:08:49;;;;;;;13.20;8.10;;;;;;;16.38;70.72;98871.40;104551;1274;94263;-79
2022/09/15 05:11:18;;;;;;;14.10;7.70;;;;;;;16.33;70.57;98867.42;104642;1274;138397;-79
2022/09/15 05:13:46;;;;;;;14.00;8.00;;;;;;;16.32;70.75;98872.55;104670;1274;108801;-79
2022/09/15 05:16:20;;;;;;;14.20;7.60;;;;;;;16.34;70.59;98872.05;103401;1274;1565726;-78
2022/09/15 05:18:50;;;;;;;13.50;7.20;;;;;;;16.36;70.53;98869.54;104730;1276;107855;-78
2022/09/15 05:21:20;;;;;;;12.90;7.90;;;;;;;16.40;70.38;98863.05;104754;1277;94293;-78
2022/09/15 05:23:50;;;;;;;12.40;7.20;;;;;;;16.36;70.27;98867.61;104650;1276;139037;-80
2022/09/15 05:26:27;;;;;;;12.60;7.60;;;;;;;16.34;70.37;98865.09;104581;1277;107898;-80
2022/09/15 05:28:56;;;;;;;14.10;7.60;;;;;;;16.36;70.41;98868.31;104530;1277;139094;-79
2022/09/15 05:31:26;;;;;;;13.70;7.90;;;;;;;16.40;70.38;98870.19;104627;1277;109346;-80
2022/09/15 05:33:54;;;;;;;15.70;8.70;;;;;;;16.41;70.26;98876.76;104559;1277;94311;-80
2022/09/15 05:36:26;;;;;;;14.90;8.00;;;;;;;16.39;70.18;98881.66;104577;1274;139233;-79
2022/09/15 05:38:57;;;;;;;14.70;8.10;;;;;;;16.36;70.26;98879.07;104621;1274;108436;-78
2022/09/15 05:41:27;;;;;;;13.80;8.20;;;;;;;16.33;70.37;98878.54;104551;1274;139323;-79
2022/09/15 05:43:57;;;;;;;14.80;8.00;;;;;;;16.37;70.49;98881.81;104708;1274;108749;-79
2022/09/15 05:46:26;;;;;;;15.00;7.70;;;;;;;16.43;70.45;98879.66;104572;1275;138668;-79
2022/09/15 05:48:56;;;;;;;12.60;7.40;;;;;;;16.40;70.40;98879.48;104572;1277;94339;-80
2022/09/15 05:51:24;;;;;;;12.70;7.80;;;;;;;16.43;70.11;98883.61;104804;1277;107337;-80
2022/09/15 05:53:51;;;;;;;14.00;7.90;;;;;;;16.39;69.94;98885.65;104913;1274;138778;-78
2022/09/15 05:56:19;;;;;;;16.50;8.40;;;;;;;16.37;69.81;98884.86;105026;1274;106543;-79
2022/09/15 05:58:48;;;;;;;14.40;8.20;;;;;;;16.34;69.76;98882.10;105104;1274;138523;-78
2022/09/15 06:01:20;;;;;;;12.00;7.10;;;;;;;16.38;69.82;98885.35;104839;1275;94505;-78
2022/09/15 06:03:48;;;;;;;14.30;7.50;;;;;;;16.45;69.61;98888.23;104897;1273;108954;-78
2022/09/15 06:06:17;;;;;;;13.70;7.90;;;;;;;16.51;69.48;98891.37;104729;1274;140932;-81
2022/09/15 06:08:48;;;;;;;13.30;7.40;;;;;;;16.58;69.28;98892.64;104837;1274;109364;-81
2022/09/15 06:11:23;;;;;;;12.70;7.30;;;;;;;16.57;68.94;98894.49;104746;1275;138528;-77
2022/09/15 06:13:51;;;;;;;13.50;7.10;;;;;;;16.58;68.70;98894.27;104801;1274;94292;-79
2022/09/15 06:16:21;;;;;;;13.10;7.20;;;;;;;16.61;68.74;98892.61;104658;1274;138709;-79
2022/09/15 06:18:51;;;;;;;12.80;7.30;;;;;;;16.60;68.32;98892.81;104795;1276;99866;-80
2022/09/15 06:21:22;;;;;;;12.50;6.70;;;;;;;16.58;68.41;98894.09;105055;1277;109283;-79
2022/09/15 06:23:54;;;;;;;11.80;6.40;;;;;;;16.62;68.39;98895.25;105002;1277;140468;-80
2022/09/15 06:26:23;;;;;;;14.80;6.90;;;;;;;16.67;68.37;98893.55;104915;1277;94299;-80
2022/09/15 06:28:56;;;;;;;12.00;6.50;;;;;;;16.67;67.82;98897.00;104860;1274;138674;-81
2022/09/15 06:31:26;;;;;;;14.60;6.60;;;;;;;16.71;67.77;98898.13;105112;1274;100122;-80
2022/09/15 06:33:56;;;;;;;11.50;6.10;;;;;;;16.71;67.53;98895.41;104938;1274;109205;-79
2022/09/15 06:36:26;;;;;;;11.40;6.10;;;;;;;16.75;67.41;98897.84;104975;1276;139787;-79
2022/09/15 06:38:55;;;;;;;12.10;6.40;;;;;;;16.80;67.24;98901.73;104691;1277;94822;-77
2022/09/15 06:41:23;;;;;;;12.40;6.50;;;;;;;16.83;67.03;98898.78;104452;1277;140284;-79
2022/09/15 06:43:51;;;;;;;13.70;5.90;;;;;;;16.84;66.92;98903.21;104822;1277;100118;-80
2022/09/15 06:46:23;;;;;;;12.90;5.70;;;;;;;16.86;66.55;98910.60;104604;1277;140713;-80
2022/09/15 06:48:52;;;;;;;12.30;5.70;;;;;;;16.86;66.26;98907.55;104834;1276;94408;-80
2022/09/15 06:51:22;;;;;;;11.50;6.10;;;;;;;16.93;66.32;98907.61;104862;1276;94400;-78
2022/09/15 06:53:52;;;;;;;11.60;5.70;;;;;;;16.98;66.18;98904.54;104621;1276;140061;-79
2022/09/15 06:56:22;;;;;;;11.70;5.20;;;;;;;17.01;66.06;98905.04;104618;1277;99873;-79
2022/09/15 06:58:50;;;;;;;12.00;5.50;;;;;;;17.03;65.64;98902.14;104612;1276;139159;-79
2022/09/15 07:01:29;;;;;;;12.10;5.70;;;;;;;16.99;65.14;98908.04;104690;1277;94604;-79
2022/09/15 07:03:59;;;;;;;10.00;4.80;;;;;;;16.97;64.87;98915.04;104899;1277;94338;-79
2022/09/15 07:06:30;;;;;;;12.20;5.30;;;;;;;16.96;65.31;98915.63;104693;1276;138404;-80
2022/09/15 07:08:59;;;;;;;10.00;4.60;;;;;;;17.03;65.13;98913.48;104756;1276;99393;-82
2022/09/15 07:11:27;;;;;;;10.90;4.90;;;;;;;17.07;64.68;98908.29;104625;1277;138596;-81
2022/09/15 07:13:55;;;;;;;12.00;4.80;;;;;;;17.12;64.63;98912.59;104711;1276;94222;-79
2022/09/15 07:16:26;;;;;;;11.50;4.70;;;;;;;17.16;64.28;98909.95;104644;1277;138142;-79
2022/09/15 07:18:56;;;;;;;9.80;4.90;;;;;;;17.15;64.05;98923.31;104954;1277;107196;-80
2022/09/15 07:21:24;;;;;;;11.00;4.20;;;;;;;17.13;64.03;98921.67;106158;1277;99944;-79
2022/09/15 07:23:56;;;;;;;9.60;4.50;;;;;;;17.15;63.64;98927.23;104598;1276;140009;-79
2022/09/15 07:26:27;;;;;;;9.00;4.50;;;;;;;17.18;63.81;98925.77;104669;1277;94378;-79
2022/09/15 07:29:04;;;;;;;11.30;4.60;;;;;;;17.23;63.95;98927.05;104687;1274;140395;-81
2022/09/15 07:31:35;;;;;;;9.30;4.00;;;;;;;17.25;63.73;98930.23;104767;1274;108598;-80
2022/09/15 07:34:04;;;;;;;10.30;4.50;;;;;;;17.24;63.39;98927.27;104902;1274;99829;-80
2022/09/15 07:36:31;;;;;;;10.00;4.20;;;;;;;17.25;63.32;98929.20;104732;1274;138668;-80
2022/09/15 07:38:59;;;;;;;11.30;4.30;;;;;;;17.27;63.21;98933.70;104726;1274;94287;-80
2022/09/15 07:41:29;;;;;;;10.20;4.70;;;;;;;17.25;63.14;98936.40;104628;1274;138165;-80
2022/09/15 07:43:59;;;;;;;8.70;4.50;;;;;;;17.24;63.44;98940.20;104641;1274;109850;-79
2022/09/15 07:46:30;;;;;;;10.00;4.60;;;;;;;17.17;63.26;98946.98;104696;1274;140143;-79
2022/09/15 07:48:59;;;;;;;11.10;4.40;;;;;;;17.22;63.50;98949.29;104751;1276;109172;-78
2022/09/15 07:51:27;;;;;;;10.10;4.60;;;;;;;17.34;63.19;98951.83;104772;1276;94766;-79
2022/09/15 07:53:55;;;;;;;10.60;4.50;;;;;;;17.45;63.11;98951.84;104537;1277;138238;-80
2022/09/15 07:56:23;;;;;;;10.80;4.50;;;;;;;17.50;62.59;98951.27;104631;1276;108927;-80
2022/09/15 07:58:51;;;;;;;12.50;4.80;;;;;;;17.59;62.40;98951.35;104616;1275;139930;-81
2022/09/15 08:01:21;;;;;;;11.20;4.60;;;;;;;17.67;62.38;98950.89;104557;1276;108176;-79
2022/09/15 08:03:51;;;;;;;11.80;4.40;;;;;;;17.71;61.19;98952.29;104921;1277;94146;-80
2022/09/15 08:06:21;;;;;;;10.80;4.30;;;;;;;17.74;61.02;98953.23;104805;1273;138734;-80
2022/09/15 08:08:50;;;;;;;9.70;3.50;;;;;;;17.78;60.53;98953.22;104752;1274;109129;-82
2022/09/15 08:11:23;;;;;;;12.10;3.90;;;;;;;17.81;60.53;98961.40;104598;1274;139243;-78
2022/09/15 08:13:51;;;;;;;8.00;3.50;;;;;;;17.84;60.40;98958.46;104610;1274;108027;-78
2022/09/15 08:16:21;;;;;;;8.90;3.10;;;;;;;17.91;60.44;98951.85;104634;1274;138860;-79
2022/09/15 08:18:51;;;;;;;12.80;3.80;;;;;;;17.98;60.05;98950.73;104812;1276;94661;-79
2022/09/15 08:21:20;;;;;;;9.20;3.40;;;;;;;18.01;59.91;98949.58;104277;1277;109038;-79
2022/09/15 08:23:51;;;;;;;7.90;3.10;;;;;;;18.10;59.83;98945.82;104729;1277;139031;-79
2022/09/15 08:26:19;;;;;;;8.80;3.20;;;;;;;18.19;59.59;98942.27;104633;1277;109754;-79
2022/09/15 08:28:48;;;;;;;9.10;3.00;;;;;;;18.24;58.96;98949.45;104559;1277;138518;-79
2022/09/15 08:31:16;;;;;;;7.80;3.00;;;;;;;18.31;58.86;98949.74;104692;1275;94839;-81
2022/09/15 08:33:50;;;;;;;8.50;2.80;;;;;;;18.41;58.28;98952.52;104624;1276;109427;-79
2022/09/15 08:36:18;;;;;;;7.30;2.80;;;;;;;18.47;58.20;98956.18;104764;1277;140250;-79
2022/09/15 08:38:46;;;;;;;7.50;2.80;;;;;;;18.52;57.80;98957.83;104642;1277;109283;-80
2022/09/15 08:41:38;;;;;;;7.20;2.40;;;;;;;18.55;57.40;98961.42;104548;1274;138204;-79
2022/09/15 08:44:43;;;;;;;6.60;2.30;;;;;;;18.55;56.93;98950.64;104792;1274;94296;-82
2022/09/15 08:47:17;;;;;;;7.90;2.60;;;;;;;18.58;56.76;98951.15;104306;1277;137872;-84
2022/09/15 08:50:10;;;;;;;10.10;2.20;;;;;;;18.69;56.67;98951.23;104672;1274;99358;-84
2022/09/15 08:52:47;;;;;;;7.10;2.20;;;;;;;18.87;55.86;98950.49;104577;1274;140069;-81
2022/09/15 08:55:35;;;;;;;7.30;2.30;;;;;;;18.96;55.47;98958.29;104715;1274;95200;-80
2022/09/15 08:58:04;;;;;;;6.60;1.80;;;;;;;19.36;54.83;98949.25;104713;1274;94298;-82
2022/09/15 09:00:32;;;;;;;5.60;1.60;;;;;;;19.65;53.44;98953.58;104773;1274;140241;-79
2022/09/15 09:03:26;;;;;;;7.30;1.80;;;;;;;19.80;53.54;98953.95;104781;1274;99397;-80
2022/09/15 09:06:12;;;;;;;7.00;1.60;;;;;;;19.96;52.98;98957.20;104630;1274;140193;-80
2022/09/15 09:08:40;;;;;;;6.50;1.60;;;;;;;20.05;51.88;98955.53;104732;1274;94711;-80
2022/09/15 09:11:27;;;;;;;7.00;1.70;;;;;;;20.16;53.01;98952.27;104722;1274;137692;-81
2022/09/15 09:14:42;;;;;;;6.00;1.60;;;;;;;20.39;50.06;98951.44;105032;1274;107399;-83
2022/09/15 09:17:13;;;;;;;7.10;1.60;;;;;;;21.40;47.71;98948.77;105117;1281;139579;-83
2022/09/15 09:19:53;;;;;;;6.40;1.70;;;;;;;23.34;44.07;98950.39;104482;1276;108251;-79
2022/09/15 09:22:24;;;;;;;6.70;1.60;;;;;;;25.45;41.02;98950.07;104413;1276;138234;-79
2022/09/15 09:24:55;;;;;;;5.60;1.70;;;;;;;27.03;38.78;98942.11;104766;1277;94646;-81
2022/09/15 09:27:27;;;;;;;6.40;1.70;;;;;;;28.14;35.98;98943.65;104628;1276;107339;-80
2022/09/15 09:30:16;;;;;;;5.90;1.70;;;;;;;29.18;35.25;98941.17;104542;1277;139605;-80
2022/09/15 09:33:07;;;;;;;6.00;1.50;;;;;;;30.63;32.51;98946.59;104619;1276;109224;-82
2022/09/15 09:35:42;;;;;;;5.40;1.30;;;;;;;32.05;30.42;98946.48;104566;1276;139739;-83
2022/09/15 09:38:19;;;;;;;5.60;1.40;;;;;;;33.12;28.48;98945.16;104660;1277;95098;-83
2022/09/15 09:40:48;;;;;;;5.70;1.40;;;;;;;34.11;27.22;98948.36;104481;1276;140208;-82
2022/09/15 09:43:16;;;;;;;5.50;1.40;;;;;;;34.54;25.40;98945.66;104638;1276;99278;-79
2022/09/15 09:45:47;;;;;;;5.80;1.40;;;;;;;34.77;25.83;98934.29;104678;1277;109479;-80
2022/09/15 09:48:20;;;;;;;6.10;1.30;;;;;;;35.46;25.05;98930.94;104549;1276;137840;-80
2022/09/15 09:50:49;;;;;;;5.10;1.30;;;;;;;36.05;23.88;98934.90;104664;1276;94338;-81
2022/09/15 09:53:28;;;;;;;4.30;1.10;;;;;;;35.98;23.76;98939.16;104689;1277;139200;-82
2022/09/15 09:56:16;;;;;;;5.00;1.50;;;;;;;36.50;23.48;98937.01;104536;1276;100659;-78
2022/09/15 09:58:43;;;;;;;6.40;1.50;;;;;;;36.56;22.06;98938.95;104493;1277;139238;-79
2022/09/15 10:01:17;;;;;;;4.50;1.00;;;;;;;35.86;22.39;98935.79;104631;1277;95185;-78
2022/09/15 10:03:45;;;;;;;5.10;1.20;;;;;;;35.51;22.15;98933.98;104769;1276;94482;-80
2022/09/15 10:06:21;;;;;;;4.70;1.30;;;;;;;33.71;23.86;98932.55;104318;1277;139862;-80
2022/09/15 10:09:04;;;;;;;5.30;1.20;;;;;;;31.81;25.63;98936.46;104778;1276;99330;-79
2022/09/15 10:11:45;;;;;;;4.80;1.40;;;;;;;30.27;27.93;98937.82;104468;1277;139405;-79
2022/09/15 10:14:27;;;;;;;4.70;1.40;;;;;;;29.05;29.43;98936.72;104506;1277;94753;-78
2022/09/15 10:17:03;;;;;;;5.30;1.50;;;;;;;28.06;31.32;98939.46;104438;1274;139476;-81
2022/09/15 10:19:43;;;;;;;5.60;1.50;;;;;;;29.07;30.46;98930.71;104697;1274;108486;-80
2022/09/15 10:22:29;;;;;;;4.20;1.20;;;;;;;29.33;29.62;98930.32;104530;1274;139172;-79
2022/09/15 10:25:01;;;;;;;6.20;1.50;;;;;;;28.25;30.69;98932.42;104653;1274;109387;-77
2022/09/15 10:27:34;;;;;;;5.10;1.50;;;;;;;26.89;32.24;98939.14;104276;1274;94325;-78
2022/09/15 10:30:11;;;;;;;5.90;1.70;;;;;;;26.08;33.97;98941.20;104626;1274;138711;-78
2022/09/15 10:32:41;;;;;;;5.60;1.70;;;;;;;25.45;34.78;98941.01;104620;1274;109410;-79
2022/09/15 10:35:10;;;;;;;5.50;1.80;;;;;;;24.75;35.88;98942.88;104675;1274;137250;-78
2022/09/15 10:37:53;;;;;;;5.80;1.80;;;;;;;24.24;37.17;98944.96;104680;1274;108285;-79
2022/09/15 10:40:29;;;;;;;5.70;1.90;;;;;;;23.79;37.92;98946.75;104500;1274;139939;-82
2022/09/15 10:43:16;;;;;;;6.70;2.00;;;;;;;23.31;38.97;98945.34;104655;1274;94420;-82
2022/09/15 10:45:47;;;;;;;8.30;1.80;;;;;;;22.87;40.07;98935.81;104629;1274;108795;-81
2022/09/15 10:48:35;;;;;;;6.40;1.70;;;;;;;22.56;39.99;98935.75;104568;1276;141095;-80
2022/09/15 10:51:14;;;;;;;5.60;1.60;;;;;;;22.16;40.38;98939.38;104664;1277;109368;-79
2022/09/15 10:53:52;;;;;;;7.10;1.70;;;;;;;21.88;41.56;98946.64;104488;1277;140169;-79
2022/09/15 10:56:35;;;;;;;5.60;1.70;;;;;;;21.64;42.10;98945.49;104525;1277;95283;-79
2022/09/15 10:59:12;;;;;;;7.00;1.70;;;;;;;21.42;43.12;98953.52;104426;1277;139263;-77
2022/09/15 11:01:54;;;;;;;6.70;1.90;;;;;;;21.24;43.74;98960.29;104630;1277;100009;-79
2022/09/15 11:04:24;;;;;;;7.60;1.90;;;;;;;20.97;43.98;98950.73;104419;1275;138370;-79
2022/09/15 11:06:58;;;;;;;6.10;2.10;;;;;;;20.84;45.10;98949.75;104565;1276;94732;-80
2022/09/15 11:09:44;;;;;;;6.50;1.90;;;;;;;20.74;45.45;98945.61;104778;1276;94756;-82
2022/09/15 11:12:47;;;;;;;5.70;1.80;;;;;;;20.60;45.32;98946.11;104659;1276;140352;-77
2022/09/15 11:15:25;;;;;;;6.20;1.70;;;;;;;20.53;46.38;98946.17;104212;1277;99291;-79
2022/09/15 11:18:27;;;;;;;5.90;1.60;;;;;;;20.56;46.24;98942.84;104386;1275;138018;-79
2022/09/15 11:21:29;;;;;;;5.70;1.70;;;;;;;20.50;46.17;98943.95;104486;1276;94756;-78
2022/09/15 11:24:10;;;;;;;4.90;1.60;;;;;;;20.42;46.10;98947.04;104398;1277;138073;-79
2022/09/15 11:26:53;;;;;;;5.30;1.40;;;;;;;20.34;46.20;98942.90;104635;1276;109190;-79
2022/09/15 11:29:28;;;;;;;5.90;1.40;;;;;;;20.29;46.10;98944.56;104508;1276;139796;-79
2022/09/15 11:32:10;;;;;;;5.80;1.60;;;;;;;20.22;46.25;98941.75;104641;1277;108908;-78
2022/09/15 11:34:48;;;;;;;6.00;1.70;;;;;;;20.18;46.29;98942.81;104225;1276;139300;-79
2022/09/15 11:37:37;;;;;;;6.60;1.60;;;;;;;20.14;46.27;98944.45;104755;1277;95213;-80
2022/09/15 11:40:22;;;;;;;5.90;1.60;;;;;;;20.14;46.83;98942.30;104633;1277;110041;-79
2022/09/15 11:42:59;;;;;;;5.80;1.60;;;;;;;20.15;46.88;98942.37;104688;1277;99821;-79
2022/09/15 11:45:34;;;;;;;6.20;1.70;;;;;;;20.11;46.93;98935.35;104669;1276;109684;-78